createdAt,value
2023-05-06T00:00:09.505Z,1.57
2023-05-06T00:02:37.424Z,1.30
2023-05-06T00:05:05.140Z,1.20
2023-05-06T00:07:32.518Z,1.20
2023-05-06T00:09:59.911Z,0.97
2023-05-06T00:12:27.378Z,0.87
2023-05-06T00:14:54.703Z,0.90
2023-05-06T00:17:22.290Z,0.90
2023-05-06T00:19:49.757Z,1.27
2023-05-06T00:22:17.504Z,2.00
2023-05-06T00:24:45.031Z,0.80
2023-05-06T00:27:12.491Z,0.80
2023-05-06T00:29:39.869Z,0.70
2023-05-06T00:32:07.617Z,2.27
2023-05-06T00:34:35.144Z,0.93
2023-05-06T00:37:02.573Z,1.23
2023-05-06T00:39:30.684Z,1.93
2023-05-06T00:42:04.641Z,0.90
2023-05-06T00:44:34.980Z,0.90
2023-05-06T00:47:02.155Z,1.30
2023-05-06T00:49:30.771Z,1.30
2023-05-06T00:51:58.290Z,2.17
2023-05-06T00:54:27.236Z,1.37
2023-05-06T00:56:55.131Z,1.30
2023-05-06T00:59:23.471Z,2.30
2023-05-06T01:01:52.794Z,1.40
2023-05-06T01:04:21.592Z,1.10
2023-05-06T01:07:06.712Z,2.73
2023-05-06T01:10:03.373Z,1.60
2023-05-06T01:12:38.488Z,3.90
2023-05-06T01:15:45.554Z,1.17
2023-05-06T01:18:16.328Z,2.13
2023-05-06T01:20:46.864Z,2.53
2023-05-06T01:23:14.685Z,2.10
2023-05-06T01:25:42.262Z,2.83
2023-05-06T01:28:11.816Z,1.40
2023-05-06T01:31:09.480Z,4.17
2023-05-06T01:33:39.750Z,1.93
2023-05-06T01:36:07.553Z,1.93
2023-05-06T01:38:59.121Z,2.17
2023-05-06T01:41:26.575Z,2.03
2023-05-06T01:43:54.515Z,2.67
2023-05-06T01:46:22.839Z,1.50
2023-05-06T01:48:52.488Z,1.73
2023-05-06T01:51:21.040Z,2.03
2023-05-06T01:53:48.170Z,4.60
2023-05-06T01:56:16.738Z,3.33
2023-05-06T01:58:44.206Z,1.87
2023-05-06T02:01:11.443Z,2.13
2023-05-06T02:03:38.941Z,1.70
2023-05-06T02:06:07.551Z,2.47
2023-05-06T02:08:35.153Z,2.50
2023-05-06T02:11:02.518Z,1.70
2023-05-06T02:13:30.064Z,2.60
2023-05-06T02:15:57.492Z,2.00
2023-05-06T02:18:25.764Z,2.03
2023-05-06T02:20:53.226Z,2.80
2023-05-06T02:23:20.565Z,3.03
2023-05-06T02:25:47.958Z,2.13
2023-05-06T02:28:15.719Z,2.10
2023-05-06T02:30:43.168Z,2.30
2023-05-06T02:33:10.489Z,3.27
2023-05-06T02:35:37.798Z,2.80
2023-05-06T02:38:04.935Z,3.17
2023-05-06T02:40:32.322Z,3.20
2023-05-06T02:42:59.489Z,3.67
2023-05-06T02:45:26.950Z,3.70
2023-05-06T02:47:54.682Z,4.03
2023-05-06T02:50:22.346Z,3.80
2023-05-06T02:52:49.535Z,3.70
2023-05-06T02:55:17.391Z,4.40
2023-05-06T02:57:44.982Z,3.50
2023-05-06T03:00:13.023Z,5.17
2023-05-06T03:02:40.674Z,4.93
2023-05-06T03:05:08.796Z,5.30
2023-05-06T03:07:36.920Z,5.30
2023-05-06T03:10:05.122Z,5.23
2023-05-06T03:12:32.788Z,5.77
2023-05-06T03:15:00.535Z,5.60
2023-05-06T03:17:27.976Z,4.80
2023-05-06T03:19:55.576Z,7.17
2023-05-06T03:22:23.414Z,6.37
2023-05-06T03:24:50.868Z,5.53
2023-05-06T03:27:18.428Z,5.27
2023-05-06T03:29:45.526Z,5.80
2023-05-06T03:32:12.944Z,5.80
2023-05-06T03:34:40.084Z,5.97
2023-05-06T03:37:07.689Z,5.17
2023-05-06T03:39:35.373Z,6.43
2023-05-06T03:42:02.834Z,5.00
2023-05-06T03:44:30.262Z,5.67
2023-05-06T03:46:57.703Z,5.43
2023-05-06T03:49:25.054Z,7.07
2023-05-06T03:51:53.485Z,6.40
2023-05-06T03:54:20.737Z,6.50
2023-05-06T03:56:48.132Z,6.00
2023-05-06T03:59:15.712Z,5.10
2023-05-06T04:01:43.134Z,6.20
2023-05-06T04:04:10.497Z,4.27
2023-05-06T04:06:37.913Z,5.43
2023-05-06T04:09:06.573Z,5.20
2023-05-06T04:11:33.843Z,4.93
2023-05-06T04:14:01.480Z,4.50
2023-05-06T04:16:29.187Z,4.33
2023-05-06T04:18:57.911Z,6.67
2023-05-06T04:21:25.309Z,4.10
2023-05-06T04:23:52.850Z,4.10
2023-05-06T04:26:20.203Z,5.23
2023-05-06T04:28:48.261Z,4.57
2023-05-06T04:31:15.936Z,4.60
2023-05-06T04:33:43.833Z,4.83
2023-05-06T04:36:11.676Z,4.83
2023-05-06T04:38:39.253Z,6.50
2023-05-06T04:41:06.687Z,5.40
2023-05-06T04:43:34.185Z,6.37
2023-05-06T04:46:02.273Z,5.77
2023-05-06T04:48:29.762Z,5.17
2023-05-06T04:50:57.054Z,5.60
2023-05-06T04:53:24.446Z,6.20
2023-05-06T04:55:52.104Z,5.90
2023-05-06T04:58:19.744Z,5.47
2023-05-06T05:00:47.200Z,5.50
2023-05-06T05:03:14.459Z,5.80
2023-05-06T05:05:42.348Z,4.90
2023-05-06T05:08:12.089Z,7.37
2023-05-06T05:10:43.069Z,5.53
2023-05-06T05:13:11.106Z,5.80
2023-05-06T05:15:39.461Z,5.90
2023-05-06T05:18:06.850Z,7.07
2023-05-06T05:20:33.984Z,5.47
2023-05-06T05:23:01.309Z,5.80
2023-05-06T05:25:28.772Z,5.30
2023-05-06T05:27:56.353Z,4.80
2023-05-06T05:30:23.733Z,7.37
2023-05-06T05:32:51.080Z,6.67
2023-05-06T05:35:18.744Z,5.30
2023-05-06T05:37:46.175Z,5.33
2023-05-06T05:40:13.945Z,5.30
2023-05-06T05:42:41.383Z,12.70
2023-05-06T05:45:09.476Z,7.10
2023-05-06T05:47:36.789Z,6.43
2023-05-06T05:50:04.833Z,7.03
2023-05-06T05:52:32.467Z,13.70
2023-05-06T05:54:59.941Z,9.37
2023-05-06T05:57:27.533Z,10.57
2023-05-06T05:59:55.061Z,15.67
2023-05-06T06:02:22.599Z,12.43
2023-05-06T06:04:49.901Z,8.40
2023-05-06T06:07:17.276Z,8.30
2023-05-06T06:09:47.141Z,9.33
2023-05-06T06:12:14.496Z,11.50
2023-05-06T06:14:41.992Z,12.53
2023-05-06T06:17:09.584Z,10.63
2023-05-06T06:19:36.979Z,10.17
2023-05-06T06:22:05.268Z,11.00
2023-05-06T06:24:35.081Z,11.40
2023-05-06T06:27:02.506Z,11.10
2023-05-06T06:29:29.672Z,13.17
2023-05-06T06:31:58.350Z,11.03
2023-05-06T06:34:25.925Z,11.43
2023-05-06T06:36:53.396Z,10.67
2023-05-06T06:39:20.879Z,10.83
2023-05-06T06:41:48.429Z,12.23
2023-05-06T06:44:15.850Z,12.40
2023-05-06T06:46:43.559Z,15.80
2023-05-06T06:49:11.134Z,13.17
2023-05-06T06:51:38.534Z,16.33
2023-05-06T06:54:05.881Z,11.37
2023-05-06T06:56:33.127Z,13.47
2023-05-06T06:59:00.766Z,11.83
2023-05-06T07:01:28.303Z,13.57
2023-05-06T07:03:55.830Z,12.43
2023-05-06T07:06:23.378Z,13.97
2023-05-06T07:08:50.612Z,14.80
2023-05-06T07:11:18.006Z,13.40
2023-05-06T07:13:45.480Z,14.27
2023-05-06T07:16:12.906Z,12.47
2023-05-06T07:18:40.377Z,12.50
2023-05-06T07:21:07.841Z,12.27
2023-05-06T07:23:35.412Z,10.93
2023-05-06T07:26:02.551Z,11.43
2023-05-06T07:28:30.082Z,11.50
2023-05-06T07:30:57.437Z,12.97
2023-05-06T07:33:24.970Z,11.63
2023-05-06T07:35:54.797Z,13.27
2023-05-06T07:38:25.456Z,10.13
2023-05-06T07:40:53.244Z,11.40
2023-05-06T07:43:22.238Z,12.43
2023-05-06T07:45:49.740Z,12.60
2023-05-06T07:48:18.644Z,16.13
2023-05-06T07:50:47.349Z,14.20
2023-05-06T07:53:14.542Z,12.47
2023-05-06T07:55:41.758Z,12.27
2023-05-06T07:58:08.928Z,11.83
2023-05-06T08:00:36.337Z,17.10
2023-05-06T08:03:04.679Z,12.97
2023-05-06T08:05:32.422Z,16.30
2023-05-06T08:08:00.047Z,10.17
2023-05-06T08:10:27.552Z,13.87
2023-05-06T08:12:54.929Z,11.83
2023-05-06T08:15:22.138Z,10.60
2023-05-06T08:17:49.462Z,10.37
2023-05-06T08:20:16.867Z,12.30
2023-05-06T08:22:44.266Z,13.13
2023-05-06T08:25:12.041Z,12.93
2023-05-06T08:27:40.100Z,10.07
2023-05-06T08:30:08.898Z,8.93
2023-05-06T08:32:36.406Z,8.30
2023-05-06T08:35:03.998Z,15.87
2023-05-06T08:37:31.347Z,11.30
2023-05-06T08:39:59.841Z,8.27
2023-05-06T08:42:27.600Z,9.03
2023-05-06T08:44:55.138Z,8.50
2023-05-06T08:47:22.793Z,9.47
2023-05-06T08:49:50.182Z,9.27
2023-05-06T08:52:17.647Z,8.07
2023-05-06T08:54:45.456Z,9.17
2023-05-06T08:57:13.074Z,9.13
2023-05-06T08:59:40.418Z,8.53
2023-05-06T09:02:08.958Z,9.57
2023-05-06T09:04:36.643Z,7.30
2023-05-06T09:07:04.084Z,8.03
2023-05-06T09:09:31.607Z,8.73
2023-05-06T09:11:59.122Z,6.77
2023-05-06T09:14:26.477Z,6.80
2023-05-06T09:16:53.923Z,6.77
2023-05-06T09:19:21.873Z,7.07
2023-05-06T09:21:50.067Z,10.80
2023-05-06T09:24:17.717Z,8.17
2023-05-06T09:26:46.058Z,8.13
2023-05-06T09:29:13.643Z,8.10
2023-05-06T09:31:45.277Z,8.03
2023-05-06T09:34:13.308Z,6.53
2023-05-06T09:36:40.615Z,6.90
2023-05-06T09:39:08.155Z,7.60
2023-05-06T09:41:35.756Z,8.60
2023-05-06T09:44:02.963Z,10.40
2023-05-06T09:46:30.426Z,6.47
2023-05-06T09:48:58.414Z,6.10
2023-05-06T09:51:25.932Z,9.20
2023-05-06T09:53:53.765Z,6.13
2023-05-06T09:56:21.527Z,7.63
2023-05-06T09:58:48.968Z,7.73
2023-05-06T10:01:25.128Z,6.30
2023-05-06T10:04:01.635Z,6.33
2023-05-06T10:06:29.209Z,5.30
2023-05-06T10:08:56.592Z,5.80
2023-05-06T10:11:23.954Z,5.83
2023-05-06T10:13:51.501Z,6.50
2023-05-06T10:16:19.469Z,7.60
2023-05-06T10:18:47.061Z,6.00
2023-05-06T10:21:22.328Z,5.73
2023-05-06T10:23:56.762Z,6.93
2023-05-06T10:26:24.040Z,5.40
2023-05-06T10:28:53.065Z,5.10
2023-05-06T10:31:20.527Z,4.47
2023-05-06T10:33:51.851Z,5.47
2023-05-06T10:36:21.729Z,4.30
2023-05-06T10:39:03.693Z,3.97
2023-05-06T10:41:31.241Z,3.47
2023-05-06T10:43:59.693Z,3.77
2023-05-06T10:46:28.252Z,5.97
2023-05-06T10:49:05.116Z,4.53
2023-05-06T10:51:48.075Z,3.45
2023-05-06T10:54:21.563Z,4.40
2023-05-06T10:56:57.538Z,3.85
2023-05-06T10:59:30.171Z,3.67
2023-05-06T11:02:03.817Z,3.65
2023-05-06T11:04:40.327Z,5.40
2023-05-06T11:07:15.709Z,4.85
2023-05-06T11:09:56.306Z,5.63
2023-05-06T11:12:42.511Z,4.33
2023-05-06T11:15:39.595Z,2.97
2023-05-06T11:18:38.981Z,3.67
2023-05-06T11:21:08.860Z,3.92
2023-05-06T11:23:42.647Z,4.40
2023-05-06T11:26:14.354Z,3.90
2023-05-06T11:28:44.721Z,5.40
2023-05-06T11:31:13.338Z,4.70
2023-05-06T11:33:50.691Z,3.77
2023-05-06T11:36:19.448Z,4.70
2023-05-06T11:38:53.370Z,5.17
2023-05-06T11:41:22.960Z,5.53
2023-05-06T11:43:50.905Z,4.67
2023-05-06T11:46:22.146Z,3.93
2023-05-06T11:48:51.454Z,4.60
2023-05-06T11:51:25.126Z,3.35
2023-05-06T11:53:53.449Z,2.85
2023-05-06T11:56:21.124Z,4.90
2023-05-06T11:58:48.747Z,3.35
2023-05-06T12:01:16.182Z,3.08
2023-05-06T12:03:43.932Z,3.22
2023-05-06T12:06:12.965Z,3.40
2023-05-06T12:08:40.187Z,3.88
2023-05-06T12:11:08.966Z,2.58
2023-05-06T12:13:37.133Z,2.70
2023-05-06T12:16:04.953Z,4.07
2023-05-06T12:18:32.655Z,3.08
2023-05-06T12:21:02.978Z,2.50
2023-05-06T12:23:30.366Z,2.53
2023-05-06T12:26:05.519Z,3.72
2023-05-06T12:28:34.090Z,2.97
2023-05-06T12:31:02.257Z,3.65
2023-05-06T12:33:44.006Z,3.15
2023-05-06T12:36:11.657Z,2.25
2023-05-06T12:38:39.016Z,3.22
2023-05-06T12:41:07.889Z,3.17
2023-05-06T12:43:35.196Z,2.58
2023-05-06T12:46:12.835Z,2.95
2023-05-06T12:48:41.924Z,2.13
2023-05-06T12:51:19.829Z,2.20
2023-05-06T12:53:47.093Z,3.67
2023-05-06T12:56:14.205Z,4.35
2023-05-06T12:58:41.820Z,2.75
2023-05-06T13:01:09.281Z,3.35
2023-05-06T13:03:39.127Z,3.15
2023-05-06T13:06:06.734Z,3.95
2023-05-06T13:08:34.770Z,2.58
2023-05-06T13:11:02.825Z,2.05
2023-05-06T13:13:29.936Z,3.58
2023-05-06T13:15:57.516Z,3.97
2023-05-06T13:18:24.948Z,5.53
2023-05-06T13:20:52.301Z,2.45
2023-05-06T13:23:19.878Z,5.15
2023-05-06T13:26:02.848Z,3.72
2023-05-06T13:28:32.644Z,4.93
2023-05-06T13:31:00.381Z,2.95
2023-05-06T13:33:28.038Z,2.75
2023-05-06T13:35:55.463Z,2.67
2023-05-06T13:38:23.462Z,4.20
2023-05-06T13:40:54.219Z,2.50
2023-05-06T13:43:22.008Z,3.50
2023-05-06T13:45:49.263Z,3.08
2023-05-06T13:48:17.679Z,3.55
2023-05-06T13:50:48.462Z,4.25
2023-05-06T13:53:15.796Z,3.75
2023-05-06T13:55:43.601Z,2.63
2023-05-06T13:58:11.395Z,5.93
2023-05-06T14:00:39.100Z,3.00
2023-05-06T14:03:06.662Z,2.47
2023-05-06T14:05:34.284Z,3.90
2023-05-06T14:08:01.850Z,7.25
2023-05-06T14:10:29.137Z,4.03
2023-05-06T14:12:56.375Z,3.15
2023-05-06T14:15:23.811Z,5.82
2023-05-06T14:17:51.477Z,4.78
2023-05-06T14:20:21.744Z,7.50
2023-05-06T14:22:49.505Z,3.95
2023-05-06T14:25:17.266Z,3.15
2023-05-06T14:27:45.924Z,4.07
2023-05-06T14:30:13.948Z,3.08
2023-05-06T14:32:41.488Z,3.00
2023-05-06T14:35:09.582Z,3.03
2023-05-06T14:37:38.092Z,2.00
2023-05-06T14:40:06.722Z,3.42
2023-05-06T14:42:36.185Z,2.40
2023-05-06T14:45:04.273Z,2.92
2023-05-06T14:47:31.830Z,3.30
2023-05-06T14:49:59.126Z,2.75
2023-05-06T14:52:26.497Z,3.30
2023-05-06T14:54:54.122Z,4.85
2023-05-06T14:57:22.253Z,2.60
2023-05-06T14:59:50.412Z,4.13
2023-05-06T15:02:17.938Z,3.95
2023-05-06T15:04:46.336Z,2.83
2023-05-06T15:07:16.335Z,2.20
2023-05-06T15:09:46.603Z,2.00
2023-05-06T15:12:13.953Z,4.90
2023-05-06T15:14:41.142Z,3.65
2023-05-06T15:17:08.664Z,12.02
2023-05-06T15:19:36.809Z,6.07
2023-05-06T15:22:04.794Z,4.38
2023-05-06T15:24:32.209Z,13.45
2023-05-06T15:26:59.740Z,19.77
2023-05-06T15:29:27.191Z,33.88
2023-05-06T15:31:54.873Z,6.03
2023-05-06T15:34:22.341Z,4.28
2023-05-06T15:36:53.571Z,9.95
2023-05-06T15:39:21.296Z,4.50
2023-05-06T15:41:48.774Z,5.78
2023-05-06T15:44:16.297Z,3.15
2023-05-06T15:46:44.109Z,2.42
2023-05-06T15:51:42.029Z,4.75
2023-05-06T15:54:09.206Z,6.97
2023-05-06T15:59:33.147Z,3.35
2023-05-06T16:02:26.345Z,3.35
2023-05-06T16:04:47.847Z,5.45
2023-05-06T16:07:15.974Z,4.22
2023-05-06T16:09:43.769Z,9.05
2023-05-06T16:12:11.063Z,4.63
2023-05-06T16:14:38.446Z,2.95
2023-05-06T16:17:06.610Z,2.53
2023-05-06T16:19:35.378Z,5.35
2023-05-06T16:22:03.055Z,3.60
2023-05-06T16:24:30.807Z,3.10
2023-05-06T16:26:58.315Z,2.40
2023-05-06T16:29:25.785Z,3.25
2023-05-06T16:31:53.297Z,3.43
2023-05-06T16:34:20.773Z,6.07
2023-05-06T16:36:48.196Z,6.60
2023-05-06T16:39:15.735Z,3.97
2023-05-06T16:41:43.206Z,3.87
2023-05-06T16:44:11.104Z,5.57
2023-05-06T16:46:38.375Z,3.40
2023-05-06T16:49:05.875Z,2.80
2023-05-06T16:51:33.557Z,4.47
2023-05-06T16:54:01.013Z,2.53
2023-05-06T16:56:40.083Z,3.10
2023-05-06T16:59:15.716Z,3.00
2023-05-06T17:01:42.876Z,2.03
2023-05-06T17:04:10.556Z,3.00
2023-05-06T17:06:37.889Z,2.50
2023-05-06T17:09:05.478Z,3.50
2023-05-06T17:11:32.944Z,5.70
2023-05-06T17:14:00.350Z,2.33
2023-05-06T17:16:27.787Z,4.40
2023-05-06T17:18:55.396Z,2.47
2023-05-06T17:21:23.096Z,5.93
2023-05-06T17:23:51.697Z,3.57
2023-05-06T17:26:19.040Z,3.47
2023-05-06T17:28:47.157Z,4.23
2023-05-06T17:31:20.787Z,1.83
2023-05-06T17:33:48.253Z,3.67
2023-05-06T17:36:19.045Z,4.67
2023-05-06T17:38:46.849Z,2.23
2023-05-06T17:41:14.343Z,2.57
2023-05-06T17:43:43.445Z,3.93
2023-05-06T17:46:10.855Z,3.43
2023-05-06T17:48:38.322Z,2.10
2023-05-06T17:51:05.764Z,3.10
2023-05-06T17:53:35.017Z,5.30
2023-05-06T17:56:02.441Z,2.93
2023-05-06T17:58:30.140Z,3.17
2023-05-06T18:00:57.869Z,2.60
2023-05-06T18:03:25.580Z,3.73
2023-05-06T18:05:53.278Z,3.43
2023-05-06T18:08:20.673Z,2.53
2023-05-06T18:10:47.971Z,3.90
2023-05-06T18:13:15.463Z,5.17
2023-05-06T18:15:43.096Z,4.17
2023-05-06T18:18:10.340Z,2.77
2023-05-06T18:20:37.731Z,4.20
2023-05-06T18:23:05.269Z,2.17
2023-05-06T18:25:32.640Z,4.13
2023-05-06T18:27:59.950Z,3.97
2023-05-06T18:30:27.471Z,2.90
2023-05-06T18:32:56.515Z,2.67
2023-05-06T18:35:24.264Z,2.00
2023-05-06T18:37:51.468Z,4.60
2023-05-06T18:40:19.028Z,3.43
2023-05-06T18:42:47.881Z,4.33
2023-05-06T18:45:15.176Z,6.03
2023-05-06T18:47:42.488Z,2.10
2023-05-06T18:50:10.369Z,4.90
2023-05-06T18:52:37.924Z,7.00
2023-05-06T18:55:06.147Z,3.93
2023-05-06T18:57:33.801Z,5.07
2023-05-06T19:00:01.058Z,3.00
2023-05-06T19:02:28.668Z,4.77
2023-05-06T19:07:47.828Z,6.03
2023-05-06T19:10:15.094Z,5.67
2023-05-06T19:12:42.669Z,3.73
2023-05-06T19:15:12.764Z,3.10
2023-05-06T19:17:40.540Z,6.53
2023-05-06T19:20:08.849Z,8.93
2023-05-06T19:22:36.519Z,8.80
2023-05-06T19:25:03.850Z,6.40
2023-05-06T19:27:31.313Z,4.67
2023-05-06T19:29:59.202Z,7.37
2023-05-06T19:32:31.198Z,3.20
2023-05-06T19:35:00.658Z,4.50
2023-05-06T19:37:30.403Z,6.00
2023-05-06T19:39:57.610Z,4.13
2023-05-06T19:42:24.952Z,3.13
2023-05-06T19:44:52.131Z,5.90
2023-05-06T19:47:19.525Z,3.37
2023-05-06T19:49:47.016Z,2.40
2023-05-06T19:52:14.451Z,2.93
2023-05-06T19:54:41.894Z,4.47
2023-05-06T19:57:09.378Z,3.13
2023-05-06T19:59:36.625Z,3.90
2023-05-06T20:02:04.144Z,3.23
2023-05-06T20:04:31.611Z,6.40
2023-05-06T20:06:59.042Z,2.60
2023-05-06T20:09:26.495Z,5.10
2023-05-06T20:11:53.740Z,3.77
2023-05-06T20:14:21.159Z,10.87
2023-05-06T20:16:48.707Z,4.13
2023-05-06T20:19:18.017Z,3.10
2023-05-06T20:21:45.749Z,3.17
2023-05-06T20:24:13.496Z,3.53
2023-05-06T20:26:41.030Z,4.30
2023-05-06T20:29:08.589Z,5.50
2023-05-06T20:31:36.088Z,2.73
2023-05-06T20:34:03.280Z,3.23
2023-05-06T20:36:31.232Z,2.60
2023-05-06T20:39:00.808Z,2.93
2023-05-06T20:41:28.390Z,3.67
2023-05-06T20:43:57.472Z,3.23
2023-05-06T20:46:24.964Z,3.43
2023-05-06T20:48:52.476Z,2.37
2023-05-06T20:51:19.761Z,2.20
2023-05-06T20:53:47.745Z,4.77
2023-05-06T20:56:23.369Z,2.47
2023-05-06T20:58:54.060Z,5.97
2023-05-06T21:01:23.125Z,3.53
2023-05-06T21:03:50.854Z,3.30
2023-05-06T21:06:18.701Z,4.10
2023-05-06T21:08:46.643Z,5.17
2023-05-06T21:11:14.406Z,4.53
2023-05-06T21:13:42.027Z,3.43
2023-05-06T21:16:09.448Z,2.60
2023-05-06T21:18:37.407Z,4.53
2023-05-06T21:21:04.968Z,3.37
2023-05-06T21:23:32.506Z,4.50
2023-05-06T21:25:59.753Z,3.90
2023-05-06T21:28:27.101Z,3.33
2023-05-06T21:30:54.494Z,3.17
2023-05-06T21:33:21.901Z,3.10
2023-05-06T21:35:49.603Z,3.60
2023-05-06T21:38:16.933Z,2.93
2023-05-06T21:40:44.324Z,3.53
2023-05-06T21:43:11.762Z,5.60
2023-05-06T21:45:39.292Z,3.50
2023-05-06T21:48:07.218Z,3.90
2023-05-06T21:50:36.257Z,4.97
2023-05-06T21:53:04.016Z,2.53
2023-05-06T21:55:31.429Z,5.77
2023-05-06T21:57:58.822Z,3.17
2023-05-06T22:00:26.319Z,3.63
2023-05-06T22:02:53.725Z,3.67
2023-05-06T22:05:21.083Z,4.07
2023-05-06T22:07:48.680Z,3.93
2023-05-06T22:10:16.291Z,3.60
2023-05-06T22:12:43.842Z,2.40
2023-05-06T22:15:12.115Z,2.60
2023-05-06T22:17:39.475Z,2.63
2023-05-06T22:20:11.391Z,3.73
2023-05-06T22:22:38.718Z,5.43
2023-05-06T22:25:06.325Z,4.33
2023-05-06T22:27:34.191Z,4.20
2023-05-06T22:30:01.842Z,4.10
2023-05-06T22:32:29.226Z,4.20
2023-05-06T22:34:56.487Z,2.63
2023-05-06T22:37:23.788Z,3.00
2023-05-06T22:39:53.102Z,2.67
2023-05-06T22:42:20.869Z,4.57
2023-05-06T22:44:48.397Z,2.73
2023-05-06T22:47:16.881Z,3.40
2023-05-06T22:49:44.657Z,4.43
2023-05-06T22:52:13.350Z,3.93
2023-05-06T22:54:40.549Z,3.00
2023-05-06T22:57:07.786Z,4.17
2023-05-06T22:59:34.982Z,2.27
2023-05-06T23:02:03.127Z,6.03
2023-05-06T23:04:30.431Z,2.60
2023-05-06T23:06:57.774Z,5.37
2023-05-06T23:09:24.961Z,2.40
2023-05-06T23:11:52.155Z,3.50
2023-05-06T23:14:20.204Z,3.13
2023-05-06T23:16:47.863Z,2.83
2023-05-06T23:19:14.992Z,2.53
2023-05-06T23:21:44.115Z,3.77
2023-05-06T23:24:11.814Z,3.47
2023-05-06T23:26:39.151Z,2.57
2023-05-06T23:29:06.400Z,2.57
2023-05-06T23:31:34.234Z,2.80
2023-05-06T23:34:01.593Z,4.30
2023-05-06T23:36:28.991Z,2.23
2023-05-06T23:38:56.895Z,3.60
2023-05-06T23:41:24.794Z,4.30
2023-05-06T23:43:52.248Z,3.03
2023-05-06T23:46:19.721Z,2.23
2023-05-06T23:48:46.943Z,3.73
2023-05-06T23:51:14.739Z,2.80
2023-05-06T23:53:42.049Z,2.60
2023-05-06T23:56:09.420Z,4.33
2023-05-06T23:58:36.663Z,2.80
